sensor_id;sensor_type;location;lat;lon;timestamp;pressure;altitude;pressure_sealevel;temperature;humidity
30081;BME280;16902;50.816;12.828;2022-12-18T00:04:40;99119.00;;;-12.78;100.00
30081;BME280;16902;50.816;12.828;2022-12-18T00:09:42;99122.34;;;-12.87;100.00
30081;BME280;16902;50.816;12.828;2022-12-18T00:14:44;99109.00;;;-12.95;100.00
30081;BME280;16902;50.816;12.828;2022-12-18T00:19:46;99118.19;;;-13.06;100.00
30081;BME280;16902;50.816;12.828;2022-12-18T00:24:48;99126.53;;;-12.98;100.00
30081;BME280;16902;50.816;12.828;2022-12-18T00:29:50;99128.19;;;-13.02;100.00
30081;BME280;16902;50.816;12.828;2022-12-18T00:34:51;99132.38;;;-13.04;100.00
30081;BME280;16902;50.816;12.828;2022-12-18T00:39:53;99138.22;;;-13.06;100.00
30081;BME280;16902;50.816;12.828;2022-12-18T00:44:55;99146.56;;;-13.10;100.00
30081;BME280;16902;50.816;12.828;2022-12-18T00:49:57;99139.06;;;-13.16;100.00
30081;BME280;16902;50.816;12.828;2022-12-18T00:54:59;99142.44;;;-13.28;100.00
30081;BME280;16902;50.816;12.828;2022-12-18T01:00:09;99138.25;;;-13.22;100.00
30081;BME280;16902;50.816;12.828;2022-12-18T01:05:12;99144.94;;;-13.19;100.00
30081;BME280;16902;50.816;12.828;2022-12-18T01:10:14;99132.41;;;-13.31;100.00
30081;BME280;16902;50.816;12.828;2022-12-18T01:15:16;99152.44;;;-13.30;100.00
30081;BME280;16902;50.816;12.828;2022-12-18T01:20:19;99149.13;;;-13.26;100.00
30081;BME280;16902;50.816;12.828;2022-12-18T01:25:20;99157.47;;;-13.25;100.00
30081;BME280;16902;50.816;12.828;2022-12-18T01:30:24;99164.16;;;-13.38;100.00
30081;BME280;16902;50.816;12.828;2022-12-18T01:35:27;99159.97;;;-13.43;100.00
30081;BME280;16902;50.816;12.828;2022-12-18T01:40:29;99159.16;;;-13.33;100.00
30081;BME280;16902;50.816;12.828;2022-12-18T01:45:31;99166.63;;;-13.35;100.00
30081;BME280;16902;50.816;12.828;2022-12-18T01:50:36;99165.78;;;-13.51;100.00
30081;BME280;16902;50.816;12.828;2022-12-18T01:55:47;99171.63;;;-13.52;100.00
30081;BME280;16902;50.816;12.828;2022-12-18T02:00:50;99173.31;;;-13.52;100.00
30081;BME280;16902;50.816;12.828;2022-12-18T02:06:15;99183.31;;;-13.57;100.00
30081;BME280;16902;50.816;12.828;2022-12-18T02:27:15;99184.00;;;-13.93;100.00
30081;BME280;16902;50.816;12.828;2022-12-18T02:32:25;99193.22;;;-13.86;100.00
30081;BME280;16902;50.816;12.828;2022-12-18T02:37:30;99194.91;;;-13.86;100.00
30081;BME280;16902;50.816;12.828;2022-12-18T02:42:35;99185.72;;;-13.92;100.00
30081;BME280;16902;50.816;12.828;2022-12-18T02:47:42;99176.50;;;-13.93;100.00
30081;BME280;16902;50.816;12.828;2022-12-18T02:58:19;99176.53;;;-13.91;100.00
30081;BME280;16902;50.816;12.828;2022-12-18T03:03:33;99178.97;;;-14.11;100.00
30081;BME280;16902;50.816;12.828;2022-12-18T03:08:42;99184.72;;;-14.23;100.00
30081;BME280;16902;50.816;12.828;2022-12-18T03:13:54;99184.75;;;-14.18;100.00
30081;BME280;16902;50.816;12.828;2022-12-18T03:19:01;99180.56;;;-14.19;100.00
30081;BME280;16902;50.816;12.828;2022-12-18T03:24:08;99177.19;;;-14.29;100.00
30081;BME280;16902;50.816;12.828;2022-12-18T03:29:24;99177.16;;;-14.32;100.00
30081;BME280;16902;50.816;12.828;2022-12-18T03:34:34;99186.44;;;-14.14;100.00
30081;BME280;16902;50.816;12.828;2022-12-18T03:39:40;99186.41;;;-14.20;100.00
30081;BME280;16902;50.816;12.828;2022-12-18T03:45:31;99193.91;;;-14.19;100.00
30081;BME280;16902;50.816;12.828;2022-12-18T03:55:20;99198.91;;;-14.19;100.00
30081;BME280;16902;50.816;12.828;2022-12-18T04:00:29;99192.19;;;-14.28;100.00
30081;BME280;16902;50.816;12.828;2022-12-18T04:05:42;99204.75;;;-14.26;100.00
30081;BME280;16902;50.816;12.828;2022-12-18T04:10:46;99202.22;;;-14.21;100.00
30081;BME280;16902;50.816;12.828;2022-12-18T04:15:48;99199.63;;;-14.47;100.00
30081;BME280;16902;50.816;12.828;2022-12-18T04:20:52;99209.63;;;-14.49;100.00
30081;BME280;16902;50.816;12.828;2022-12-18T04:25:54;99208.78;;;-14.49;100.00
30081;BME280;16902;50.816;12.828;2022-12-18T04:31:10;99207.09;;;-14.52;100.00
30081;BME280;16902;50.816;12.828;2022-12-18T04:36:12;99210.44;;;-14.47;100.00
30081;BME280;16902;50.816;12.828;2022-12-18T04:41:15;99217.94;;;-14.55;100.00
30081;BME280;16902;50.816;12.828;2022-12-18T04:46:19;99217.03;;;-14.64;100.00
30081;BME280;16902;50.816;12.828;2022-12-18T04:51:21;99208.69;;;-14.63;100.00
30081;BME280;16902;50.816;12.828;2022-12-18T04:56:27;99201.25;;;-14.54;100.00
30081;BME280;16902;50.816;12.828;2022-12-18T05:01:28;99213.63;;;-14.74;100.00
30081;BME280;16902;50.816;12.828;2022-12-18T05:06:35;99205.22;;;-14.81;100.00
30081;BME280;16902;50.816;12.828;2022-12-18T05:11:37;99213.56;;;-14.80;100.00
30081;BME280;16902;50.816;12.828;2022-12-18T05:16:38;99216.97;;;-14.72;100.00
30081;BME280;16902;50.816;12.828;2022-12-18T05:21:40;99218.66;;;-14.65;100.00
30081;BME280;16902;50.816;12.828;2022-12-18T05:26:42;99221.97;;;-14.70;100.00
30081;BME280;16902;50.816;12.828;2022-12-18T05:31:44;99221.88;;;-14.83;100.00
30081;BME280;16902;50.816;12.828;2022-12-18T05:36:46;99222.72;;;-14.81;100.00
30081;BME280;16902;50.816;12.828;2022-12-18T05:41:48;99207.59;;;-14.96;100.00
30081;BME280;16902;50.816;12.828;2022-12-18T05:46:49;99206.84;;;-14.84;100.00
30081;BME280;16902;50.816;12.828;2022-12-18T05:51:51;99221.84;;;-14.86;100.00
30081;BME280;16902;50.816;12.828;2022-12-18T05:56:52;99218.44;;;-14.94;100.00
30081;BME280;16902;50.816;12.828;2022-12-18T06:01:55;99230.06;;;-14.99;100.00
30081;BME280;16902;50.816;12.828;2022-12-18T06:06:57;99244.22;;;-14.99;100.00
30081;BME280;16902;50.816;12.828;2022-12-18T06:11:59;99244.25;;;-14.96;100.00
30081;BME280;16902;50.816;12.828;2022-12-18T06:17:00;99259.97;;;-15.08;100.00
30081;BME280;16902;50.816;12.828;2022-12-18T06:22:02;99254.81;;;-15.25;100.00
30081;BME280;16902;50.816;12.828;2022-12-18T06:27:03;99254.81;;;-15.23;100.00
30081;BME280;16902;50.816;12.828;2022-12-18T06:32:05;99246.56;;;-15.18;100.00
30081;BME280;16902;50.816;12.828;2022-12-18T06:37:07;99261.50;;;-15.22;100.00
30081;BME280;16902;50.816;12.828;2022-12-18T06:42:08;99260.72;;;-15.17;100.00
30081;BME280;16902;50.816;12.828;2022-12-18T06:47:10;99267.38;;;-15.17;100.00
30081;BME280;16902;50.816;12.828;2022-12-18T06:52:12;99273.09;;;-15.27;100.00
30081;BME280;16902;50.816;12.828;2022-12-18T06:57:13;99259.75;;;-15.30;100.00
30081;BME280;16902;50.816;12.828;2022-12-18T07:02:15;99262.97;;;-15.38;100.00
30081;BME280;16902;50.816;12.828;2022-12-18T07:07:17;99254.69;;;-15.37;100.00
30081;BME280;16902;50.816;12.828;2022-12-18T07:12:19;99246.47;;;-15.24;100.00
30081;BME280;16902;50.816;12.828;2022-12-18T07:17:20;99254.00;;;-15.22;100.00
30081;BME280;16902;50.816;12.828;2022-12-18T07:22:22;99255.88;;;-15.00;100.00
30081;BME280;16902;50.816;12.828;2022-12-18T07:27:24;99276.63;;;-15.04;100.00
30081;BME280;16902;50.816;12.828;2022-12-18T07:32:26;99261.59;;;-15.09;100.00
30081;BME280;16902;50.816;12.828;2022-12-18T07:37:28;99271.69;;;-14.99;100.00
30081;BME280;16902;50.816;12.828;2022-12-18T07:42:29;99280.16;;;-14.87;100.00
30081;BME280;16902;50.816;12.828;2022-12-18T07:47:35;99281.09;;;-14.74;100.00
30081;BME280;16902;50.816;12.828;2022-12-18T07:52:37;99283.66;;;-14.68;100.00
30081;BME280;16902;50.816;12.828;2022-12-18T07:57:39;99289.47;;;-14.67;100.00
30081;BME280;16902;50.816;12.828;2022-12-18T08:03:01;99282.97;;;-14.44;100.00
30081;BME280;16902;50.816;12.828;2022-12-18T08:08:03;99282.28;;;-14.23;100.00
30081;BME280;16902;50.816;12.828;2022-12-18T08:13:04;99280.69;;;-14.07;100.00
30081;BME280;16902;50.816;12.828;2022-12-18T08:18:06;99289.13;;;-13.94;100.00
30081;BME280;16902;50.816;12.828;2022-12-18T08:23:14;99293.41;;;-13.72;100.00
30081;BME280;16902;50.816;12.828;2022-12-18T08:28:16;99301.03;;;-13.44;100.00
30081;BME280;16902;50.816;12.828;2022-12-18T08:33:18;99316.19;;;-13.05;100.00
30081;BME280;16902;50.816;12.828;2022-12-18T08:38:19;99307.03;;;-12.78;100.00
30081;BME280;16902;50.816;12.828;2022-12-18T08:43:21;99311.25;;;-12.31;100.00
30081;BME280;16902;50.816;12.828;2022-12-18T08:48:42;99308.59;;;-11.76;100.00
30081;BME280;16902;50.816;12.828;2022-12-18T08:53:44;99313.38;;;-11.06;100.00
30081;BME280;16902;50.816;12.828;2022-12-18T08:58:46;99308.84;;;-10.49;100.00
30081;BME280;16902;50.816;12.828;2022-12-18T09:03:51;99311.72;;;-9.99;100.00
30081;BME280;16902;50.816;12.828;2022-12-18T09:08:52;99311.22;;;-9.50;100.00
30081;BME280;16902;50.816;12.828;2022-12-18T09:13:55;99313.22;;;-9.08;100.00
30081;BME280;16902;50.816;12.828;2022-12-18T09:18:57;99316.28;;;-8.84;100.00
30081;BME280;16902;50.816;12.828;2022-12-18T09:24:01;99320.97;;;-8.58;100.00
30081;BME280;16902;50.816;12.828;2022-12-18T09:29:03;99329.31;;;-8.04;100.00
30081;BME280;16902;50.816;12.828;2022-12-18T09:34:05;99315.72;;;-7.96;100.00
30081;BME280;16902;50.816;12.828;2022-12-18T09:39:07;99301.00;;;-7.30;100.00
30081;BME280;16902;50.816;12.828;2022-12-18T09:49:16;99282.03;;;-6.71;100.00
30081;BME280;16902;50.816;12.828;2022-12-18T09:54:26;99286.88;;;-6.27;100.00
30081;BME280;16902;50.816;12.828;2022-12-18T09:59:37;99273.69;;;-5.74;100.00
30081;BME280;16902;50.816;12.828;2022-12-18T10:04:41;99252.16;;;-5.30;100.00
30081;BME280;16902;50.816;12.828;2022-12-18T10:09:58;99254.88;;;-5.06;100.00
30081;BME280;16902;50.816;12.828;2022-12-18T10:20:24;99240.59;;;-4.56;100.00
30081;BME280;16902;50.816;12.828;2022-12-18T10:30:33;99220.50;;;-3.87;100.00
30081;BME280;16902;50.816;12.828;2022-12-18T10:35:35;99211.22;;;-3.65;100.00
30081;BME280;16902;50.816;12.828;2022-12-18T10:41:02;99214.09;;;-3.27;100.00
30081;BME280;16902;50.816;12.828;2022-12-18T10:56:34;99218.47;;;-0.18;100.00
30081;BME280;16902;50.816;12.828;2022-12-18T11:01:50;99211.41;;;1.17;100.00
30081;BME280;16902;50.816;12.828;2022-12-18T11:06:57;99200.50;;;3.15;100.00
30081;BME280;16902;50.816;12.828;2022-12-18T11:12:02;99198.78;;;4.94;100.00
30081;BME280;16902;50.816;12.828;2022-12-18T11:17:05;99188.53;;;5.05;100.00
30081;BME280;16902;50.816;12.828;2022-12-18T11:22:28;99187.44;;;4.47;100.00
30081;BME280;16902;50.816;12.828;2022-12-18T11:27:31;99193.75;;;3.79;100.00
30081;BME280;16902;50.816;12.828;2022-12-18T11:32:40;99198.53;;;3.05;100.00
30081;BME280;16902;50.816;12.828;2022-12-18T11:37:54;99193.16;;;3.08;100.00
30081;BME280;16902;50.816;12.828;2022-12-18T11:43:15;99198.63;;;4.22;100.00
30081;BME280;16902;50.816;12.828;2022-12-18T11:48:26;99215.38;;;5.02;100.00
30081;BME280;16902;50.816;12.828;2022-12-18T11:53:30;99218.44;;;4.21;100.00
30081;BME280;16902;50.816;12.828;2022-12-18T11:58:46;99222.41;;;4.00;100.00
30081;BME280;16902;50.816;12.828;2022-12-18T12:09:27;99215.19;;;4.93;100.00
30081;BME280;16902;50.816;12.828;2022-12-18T12:35:36;99197.16;;;9.36;100.00
30081;BME280;16902;50.816;12.828;2022-12-18T12:40:53;99200.72;;;8.04;100.00
30081;BME280;16902;50.816;12.828;2022-12-18T12:46:06;99186.69;;;4.57;100.00
30081;BME280;16902;50.816;12.828;2022-12-18T12:51:14;99181.56;;;2.33;100.00
30081;BME280;16902;50.816;12.828;2022-12-18T12:56:19;99183.22;;;0.54;100.00
30081;BME280;16902;50.816;12.828;2022-12-18T13:06:50;99187.69;;;-0.16;100.00
30081;BME280;16902;50.816;12.828;2022-12-18T13:12:05;99179.72;;;-0.62;100.00
30081;BME280;16902;50.816;12.828;2022-12-18T13:17:35;99195.13;;;-0.64;100.00
30081;BME280;16902;50.816;12.828;2022-12-18T13:22:40;99182.41;;;-1.38;100.00
30081;BME280;16902;50.816;12.828;2022-12-18T13:32:45;99175.22;;;-2.25;100.00
30081;BME280;16902;50.816;12.828;2022-12-18T13:37:54;99167.69;;;-2.49;100.00
30081;BME280;16902;50.816;12.828;2022-12-18T13:42:57;99159.66;;;-2.60;100.00
30081;BME280;16902;50.816;12.828;2022-12-18T13:48:16;99164.84;;;-2.83;100.00
30081;BME280;16902;50.816;12.828;2022-12-18T14:04:45;99156.78;;;-3.39;100.00
30081;BME280;16902;50.816;12.828;2022-12-18T14:09:58;99147.03;;;-3.49;100.00
30081;BME280;16902;50.816;12.828;2022-12-18T14:20:32;99141.91;;;-3.71;100.00
30081;BME280;16902;50.816;12.828;2022-12-18T14:25:34;99146.59;;;-3.84;100.00
30081;BME280;16902;50.816;12.828;2022-12-18T14:30:40;99140.44;;;-4.00;100.00
30081;BME280;16902;50.816;12.828;2022-12-18T14:35:56;99134.34;;;-4.20;100.00
30081;BME280;16902;50.816;12.828;2022-12-18T14:41:10;99137.13;;;-4.27;100.00
30081;BME280;16902;50.816;12.828;2022-12-18T14:51:36;99132.72;;;-4.72;100.00
30081;BME280;16902;50.816;12.828;2022-12-18T14:56:47;99132.25;;;-4.83;100.00
30081;BME280;16902;50.816;12.828;2022-12-18T15:07:13;99118.31;;;-5.25;100.00
30081;BME280;16902;50.816;12.828;2022-12-18T15:17:29;99106.94;;;-5.68;100.00
30081;BME280;16902;50.816;12.828;2022-12-18T15:22:35;99109.03;;;-5.82;100.00
30081;BME280;16902;50.816;12.828;2022-12-18T15:27:38;99096.91;;;-6.00;100.00
30081;BME280;16902;50.816;12.828;2022-12-18T15:32:44;99122.31;;;-6.02;100.00
30081;BME280;16902;50.816;12.828;2022-12-18T15:37:47;99131.47;;;-5.96;100.00
30081;BME280;16902;50.816;12.828;2022-12-18T15:42:52;99142.34;;;-5.92;100.00
30081;BME280;16902;50.816;12.828;2022-12-18T15:48:21;99143.81;;;-6.15;100.00
30081;BME280;16902;50.816;12.828;2022-12-18T15:53:27;99128.31;;;-6.35;100.00
30081;BME280;16902;50.816;12.828;2022-12-18T15:58:31;99136.44;;;-6.55;100.00
30081;BME280;16902;50.816;12.828;2022-12-18T16:03:32;99140.47;;;-6.48;100.00
30081;BME280;16902;50.816;12.828;2022-12-18T16:08:35;99129.38;;;-6.42;100.00
30081;BME280;16902;50.816;12.828;2022-12-18T16:13:36;99128.47;;;-6.41;100.00
30081;BME280;16902;50.816;12.828;2022-12-18T16:18:39;99132.66;;;-6.40;100.00
30081;BME280;16902;50.816;12.828;2022-12-18T16:23:41;99122.81;;;-6.51;100.00
30081;BME280;16902;50.816;12.828;2022-12-18T16:28:43;99124.75;;;-6.61;100.00
30081;BME280;16902;50.816;12.828;2022-12-18T16:33:49;99114.69;;;-6.64;100.00
30081;BME280;16902;50.816;12.828;2022-12-18T16:38:50;99103.22;;;-6.77;100.00
30081;BME280;16902;50.816;12.828;2022-12-18T16:43:52;99103.47;;;-6.86;100.00
30081;BME280;16902;50.816;12.828;2022-12-18T16:48:57;99100.25;;;-6.93;100.00
30081;BME280;16902;50.816;12.828;2022-12-18T16:54:00;99123.56;;;-6.80;100.00
30081;BME280;16902;50.816;12.828;2022-12-18T16:59:10;99110.38;;;-6.93;100.00
30081;BME280;16902;50.816;12.828;2022-12-18T17:04:11;99102.38;;;-7.12;100.00
30081;BME280;16902;50.816;12.828;2022-12-18T17:09:14;99091.97;;;-7.00;100.00
30081;BME280;16902;50.816;12.828;2022-12-18T17:14:19;99087.91;;;-7.05;100.00
30081;BME280;16902;50.816;12.828;2022-12-18T17:19:23;99084.63;;;-7.09;100.00
30081;BME280;16902;50.816;12.828;2022-12-18T17:24:25;99079.66;;;-7.13;100.00
30081;BME280;16902;50.816;12.828;2022-12-18T17:29:34;99070.69;;;-7.27;100.00
30081;BME280;16902;50.816;12.828;2022-12-18T17:34:36;99067.69;;;-7.07;100.00
30081;BME280;16902;50.816;12.828;2022-12-18T17:39:38;99055.50;;;-6.91;100.00
30081;BME280;16902;50.816;12.828;2022-12-18T17:44:40;99042.03;;;-6.93;100.00
30081;BME280;16902;50.816;12.828;2022-12-18T17:49:42;99035.34;;;-6.95;100.00
30081;BME280;16902;50.816;12.828;2022-12-18T17:54:44;99026.88;;;-6.94;100.00
30081;BME280;16902;50.816;12.828;2022-12-18T17:59:47;99042.72;;;-6.86;100.00
30081;BME280;16902;50.816;12.828;2022-12-18T18:04:49;99022.00;;;-6.69;100.00
30081;BME280;16902;50.816;12.828;2022-12-18T18:09:50;99018.81;;;-6.76;100.00
30081;BME280;16902;50.816;12.828;2022-12-18T18:14:52;99013.81;;;-6.79;100.00
30081;BME280;16902;50.816;12.828;2022-12-18T18:19:54;99004.22;;;-6.66;100.00
30081;BME280;16902;50.816;12.828;2022-12-18T18:24:55;99008.09;;;-6.55;100.00
30081;BME280;16902;50.816;12.828;2022-12-18T18:29:57;99000.47;;;-6.24;100.00
30081;BME280;16902;50.816;12.828;2022-12-18T18:34:59;98997.69;;;-6.16;100.00
30081;BME280;16902;50.816;12.828;2022-12-18T18:40:00;99007.06;;;-6.19;100.00
30081;BME280;16902;50.816;12.828;2022-12-18T18:45:03;99003.56;;;-6.14;100.00
30081;BME280;16902;50.816;12.828;2022-12-18T18:50:05;99003.09;;;-5.99;100.00
30081;BME280;16902;50.816;12.828;2022-12-18T18:55:07;98993.59;;;-5.92;100.00
30081;BME280;16902;50.816;12.828;2022-12-18T19:00:21;98999.13;;;-6.07;100.00
30081;BME280;16902;50.816;12.828;2022-12-18T19:05:23;98989.53;;;-5.98;100.00
30081;BME280;16902;50.816;12.828;2022-12-18T19:10:25;98968.38;;;-5.97;100.00
30081;BME280;16902;50.816;12.828;2022-12-18T19:15:26;98981.09;;;-5.72;100.00
30081;BME280;16902;50.816;12.828;2022-12-18T19:20:28;98973.13;;;-5.61;100.00
30081;BME280;16902;50.816;12.828;2022-12-18T19:25:30;98952.13;;;-5.14;100.00
30081;BME280;16902;50.816;12.828;2022-12-18T19:30:41;98939.25;;;-5.33;100.00
30081;BME280;16902;50.816;12.828;2022-12-18T19:35:42;98934.97;;;-5.31;100.00
30081;BME280;16902;50.816;12.828;2022-12-18T19:40:45;98925.31;;;-5.22;100.00
30081;BME280;16902;50.816;12.828;2022-12-18T19:45:53;98910.78;;;-5.18;100.00
30081;BME280;16902;50.816;12.828;2022-12-18T19:50:55;98916.59;;;-5.14;100.00
30081;BME280;16902;50.816;12.828;2022-12-18T19:55:57;98908.50;;;-5.01;100.00
30081;BME280;16902;50.816;12.828;2022-12-18T20:00:59;98914.47;;;-4.78;100.00
30081;BME280;16902;50.816;12.828;2022-12-18T20:06:12;98917.44;;;-4.44;100.00
30081;BME280;16902;50.816;12.828;2022-12-18T20:11:14;98901.53;;;-4.27;100.00
30081;BME280;16902;50.816;12.828;2022-12-18T20:16:16;98913.78;;;-4.15;100.00
30081;BME280;16902;50.816;12.828;2022-12-18T20:21:17;98909.75;;;-3.78;100.00
30081;BME280;16902;50.816;12.828;2022-12-18T20:26:19;98925.72;;;-3.52;100.00
30081;BME280;16902;50.816;12.828;2022-12-18T20:31:21;98901.66;;;-2.12;100.00
30081;BME280;16902;50.816;12.828;2022-12-18T20:36:24;98899.56;;;-1.86;100.00
30081;BME280;16902;50.816;12.828;2022-12-18T20:41:28;98899.66;;;-1.88;100.00
30081;BME280;16902;50.816;12.828;2022-12-18T20:46:39;98893.19;;;-2.12;100.00
30081;BME280;16902;50.816;12.828;2022-12-18T20:51:40;98888.06;;;-2.12;100.00
30081;BME280;16902;50.816;12.828;2022-12-18T20:56:42;98899.59;;;-1.69;100.00
30081;BME280;16902;50.816;12.828;2022-12-18T21:01:44;98901.56;;;-1.74;100.00
30081;BME280;16902;50.816;12.828;2022-12-18T21:06:50;98904.28;;;-1.26;100.00
30081;BME280;16902;50.816;12.828;2022-12-18T21:12:02;98909.53;;;-1.12;100.00
30081;BME280;16902;50.816;12.828;2022-12-18T21:17:23;98926.63;;;-1.30;100.00
30081;BME280;16902;50.816;12.828;2022-12-18T21:22:27;98927.59;;;-1.33;100.00
30081;BME280;16902;50.816;12.828;2022-12-18T21:27:28;98933.53;;;-1.49;100.00
30081;BME280;16902;50.816;12.828;2022-12-18T21:32:30;98903.41;;;-1.43;100.00
30081;BME280;16902;50.816;12.828;2022-12-18T21:37:34;98888.81;;;-1.41;100.00
30081;BME280;16902;50.816;12.828;2022-12-18T21:42:35;98894.97;;;-1.27;100.00
30081;BME280;16902;50.816;12.828;2022-12-18T21:47:55;98889.03;;;-1.11;100.00
30081;BME280;16902;50.816;12.828;2022-12-18T21:52:57;98866.63;;;-1.06;100.00
30081;BME280;16902;50.816;12.828;2022-12-18T21:57:59;98870.59;;;-0.68;100.00
30081;BME280;16902;50.816;12.828;2022-12-18T22:03:01;98864.16;;;-0.75;100.00
30081;BME280;16902;50.816;12.828;2022-12-18T22:08:19;98856.53;;;-1.09;100.00
30081;BME280;16902;50.816;12.828;2022-12-18T22:13:21;98855.44;;;-1.20;100.00
30081;BME280;16902;50.816;12.828;2022-12-18T22:18:22;98843.56;;;-1.21;100.00
30081;BME280;16902;50.816;12.828;2022-12-18T22:23:24;98832.75;;;-1.26;100.00
30081;BME280;16902;50.816;12.828;2022-12-18T22:28:25;98823.22;;;-1.23;100.00
30081;BME280;16902;50.816;12.828;2022-12-18T22:33:46;98828.91;;;-1.18;100.00
30081;BME280;16902;50.816;12.828;2022-12-18T22:38:47;98813.44;;;-0.83;100.00
30081;BME280;16902;50.816;12.828;2022-12-18T22:43:49;98796.56;;;-1.01;100.00
30081;BME280;16902;50.816;12.828;2022-12-18T22:48:51;98806.91;;;-1.05;100.00
30081;BME280;16902;50.816;12.828;2022-12-18T22:53:52;98791.91;;;-1.11;100.00
30081;BME280;16902;50.816;12.828;2022-12-18T22:58:55;98807.25;;;-0.95;100.00
30081;BME280;16902;50.816;12.828;2022-12-18T23:03:59;98786.28;;;-1.17;100.00
30081;BME280;16902;50.816;12.828;2022-12-18T23:09:01;98784.59;;;-1.01;100.00
30081;BME280;16902;50.816;12.828;2022-12-18T23:14:03;98777.56;;;-1.29;100.00
30081;BME280;16902;50.816;12.828;2022-12-18T23:19:04;98766.44;;;-1.61;100.00
30081;BME280;16902;50.816;12.828;2022-12-18T23:24:06;98746.50;;;-1.70;100.00
30081;BME280;16902;50.816;12.828;2022-12-18T23:29:08;98758.69;;;-1.60;100.00
30081;BME280;16902;50.816;12.828;2022-12-18T23:34:12;98744.00;;;-1.39;100.00
30081;BME280;16902;50.816;12.828;2022-12-18T23:39:14;98743.25;;;-1.41;100.00
30081;BME280;16902;50.816;12.828;2022-12-18T23:44:30;98757.97;;;-1.46;100.00
30081;BME280;16902;50.816;12.828;2022-12-18T23:49:31;98747.72;;;-1.28;100.00
30081;BME280;16902;50.816;12.828;2022-12-18T23:54:33;98732.22;;;-0.94;100.00
30081;BME280;16902;50.816;12.828;2022-12-18T23:59:35;98730.19;;;-1.19;100.00
